Portada
METAR-TAF:

METAR-TAF

Aeropuertos :

Ciudad de Kuwait, Kuwait

Aeropuerto Internacional de Kuwait

latitud: 29-13N, longitud: 047-59E, altitud: 55 m

Observación

El informe se hizo hace 29 minutos, a las 15:00 UTC
Viento 11 kt del sureste
Temperatura 18°C
Humedad 56%
Presión 1013 hPa
Visibilidad: 5000 m
(leve) calima

METAR: OKBK 231500Z 14011KT 5000 -HZ NSC 18/09 Q1013 NOSIG

Hora: 18:29 (15:29 UTC)

Pronóstico

El informe se hizo hace 4 horas y 44 minutos, a las 10:45 UTC
Pronóstico válido del 23 a las 12 UTC al 24 a las 18 UTC
Viento 12 kt del sur-sureste con ráfagas de 22 kt
Visibilidad: 6000 m
Temporalmente
del 23 a las 12 UTC al 23 a las 18 UTC
Visibilidad: 2500 m
Ventisca alta de polvo

TAF: OKBK 231045Z 2312/2418 15012G22KT 6000 NSC TEMPO 2312/2318 2500 BLDU

Observaciones y pronósticos meteorológicos de más de 4000 aeropuertos (mensajes METAR y TAF).

Los puntos amarillos y rojos representan las estaciones disponibles.

Ponga el ratón en el punto deseado para ver el nombre de la estación.

Haga clic para ver las observaciones y los pronósticos meteorológicos.

Para cambiar el mapa : haga clic en los botones verdes con una cruz de color negro para hacer un zoom, en el botón verde con un guión para alejar o en las flechas verdes para mapas adyacentes.


METAR-TAF: